Time,TemperatureF,DewpointF,PressureIn,WindDirection,WindDirectionDegrees,WindSpeedMPH,WindSpeedGustMPH,Humidity,HourlyPrecipIn,Conditions,Clouds,dailyrainin,SoftwareType,DateUTC
2013-02-14 00:00:00,36.5,30.6,29.89,North,0,0.0,0.0,79,0.00,FEW,,0.00,WeatherDisplay:10.37,2013-02-14 05:00:00,
2013-02-14 00:05:00,36.5,30.6,29.88,North,0,0.0,0.0,79,0.00,FEW,,0.00,WeatherDisplay:10.37,2013-02-14 05:05:00,
2013-02-14 00:10:00,36.3,30.4,29.88,North,0,0.0,0.0,79,0.00,FEW,,0.00,WeatherDisplay:10.37,2013-02-14 05:10:00,
2013-02-14 00:15:00,36.3,30.4,29.88,NNE,22,5.8,5.8,79,0.00,FEW,,0.00,WeatherDisplay:10.37,2013-02-14 05:15:00,
2013-02-14 00:20:00,36.1,30.3,29.89,NNE,22,0.0,0.0,79,0.00,FEW,,0.00,WeatherDisplay:10.37,2013-02-14 05:20:00,
2013-02-14 00:25:00,36.0,30.1,29.89,NNE,22,0.0,0.0,79,0.00,FEW,,0.00,WeatherDisplay:10.37,2013-02-14 05:25:00,
2013-02-14 00:30:00,36.0,30.4,29.89,NNE,22,0.0,0.0,80,0.00,FEW,,0.00,WeatherDisplay:10.37,2013-02-14 05:30:00,
2013-02-14 00:35:00,35.8,30.2,29.89,NNE,22,0.0,0.0,80,0.00,FEW,,0.00,WeatherDisplay:10.37,2013-02-14 05:35:00,
2013-02-14 00:40:00,35.8,30.2,29.89,North,0,0.0,2.0,80,0.00,FEW,,0.00,WeatherDisplay:10.37,2013-02-14 05:40:00,
2013-02-14 00:45:00,35.6,30.0,29.89,North,0,0.0,0.0,80,0.00,FEW,,0.00,WeatherDisplay:10.37,2013-02-14 05:45:00,
2013-02-14 00:50:00,35.4,29.9,29.90,NW,315,0.0,0.0,80,0.00,FEW,,0.00,WeatherDisplay:10.37,2013-02-14 05:50:00,
2013-02-14 00:51:00,35.4,29.9,29.90,NW,315,0.0,0.0,80,0.00,FEW,,0.00,WeatherDisplay:10.37,2013-02-14 05:51:00,
2013-02-14 00:56:00,35.4,29.9,29.90,NW,315,0.0,0.0,80,0.00,FEW,,0.00,WeatherDisplay:10.37,2013-02-14 05:56:00,
2013-02-14 01:01:00,35.4,29.9,29.90,NW,315,0.0,0.0,80,0.00,FEW,,0.00,WeatherDisplay:10.37,2013-02-14 06:01:00,
2013-02-14 01:06:00,35.4,29.9,29.90,NW,315,0.0,0.0,80,0.00,SCT,,0.00,WeatherDisplay:10.37,2013-02-14 06:06:00,
2013-02-14 01:11:00,35.2,29.7,29.90,NW,315,0.0,0.0,80,0.00,SCT,,0.00,WeatherDisplay:10.37,2013-02-14 06:11:00,
2013-02-14 01:16:00,34.9,29.6,29.90,NW,315,0.0,0.0,81,0.00,SCT,,0.00,WeatherDisplay:10.37,2013-02-14 06:16:00,
2013-02-14 01:21:00,34.9,29.6,29.90,NW,315,0.0,0.0,81,0.00,SCT,,0.00,WeatherDisplay:10.37,2013-02-14 06:21:00,
2013-02-14 01:26:00,34.5,29.3,29.90,NW,315,0.0,0.0,81,0.00,SCT,,0.00,WeatherDisplay:10.37,2013-02-14 06:26:00,
2013-02-14 01:31:00,34.3,29.1,29.91,NW,315,0.0,0.0,81,0.00,SCT,,0.00,WeatherDisplay:10.37,2013-02-14 06:31:00,
2013-02-14 01:36:00,34.3,29.4,29.91,NW,315,0.0,0.0,82,0.00,SCT,,0.00,WeatherDisplay:10.37,2013-02-14 06:36:00,
2013-02-14 01:41:00,34.3,29.4,29.91,NW,315,0.0,0.0,82,0.00,SCT,,0.00,WeatherDisplay:10.37,2013-02-14 06:41:00,
2013-02-14 01:46:00,34.3,29.4,29.91,NW,315,0.0,0.0,82,0.00,SCT,,0.00,WeatherDisplay:10.37,2013-02-14 06:46:00,
2013-02-14 01:51:00,34.3,29.4,29.91,NNW,338,0.0,0.0,82,0.00,SCT,,0.00,WeatherDisplay:10.37,2013-02-14 06:51:00,
2013-02-14 01:56:00,34.3,29.4,29.91,NNW,338,0.0,0.0,82,0.00,SCT,,0.00,WeatherDisplay:10.37,2013-02-14 06:56:00,
2013-02-14 02:01:00,34.2,29.2,29.91,NNW,338,0.0,0.0,82,0.00,CLR,,0.00,WeatherDisplay:10.37,2013-02-14 07:01:00,
2013-02-14 02:07:00,34.0,29.1,29.91,NNW,338,0.0,0.0,82,0.00,CLR,,0.00,WeatherDisplay:10.37,2013-02-14 07:07:00,
2013-02-14 02:12:00,33.6,28.7,29.91,NNW,338,0.0,0.0,82,0.00,CLR,,0.00,WeatherDisplay:10.37,2013-02-14 07:12:00,
2013-02-14 02:17:00,33.6,28.7,29.91,NNW,338,0.0,0.0,82,0.00,CLR,,0.00,WeatherDisplay:10.37,2013-02-14 07:17:00,
2013-02-14 02:22:00,33.4,28.5,29.91,NNW,338,0.0,0.0,82,0.00,CLR,,0.00,WeatherDisplay:10.37,2013-02-14 07:22:00,
2013-02-14 02:27:00,33.1,28.2,29.91,NNW,338,0.0,0.0,82,0.00,CLR,,0.00,WeatherDisplay:10.37,2013-02-14 07:27:00,
2013-02-14 02:32:00,32.9,28.0,29.92,NNW,338,0.0,0.0,82,0.00,CLR,,0.00,WeatherDisplay:10.37,2013-02-14 07:32:00,
2013-02-14 02:37:00,32.7,27.8,29.92,NNW,338,0.0,0.0,82,0.00,CLR,,0.00,WeatherDisplay:10.37,2013-02-14 07:37:00,
2013-02-14 02:42:00,32.7,28.1,29.91,North,0,2.3,2.3,83,0.00,CLR,,0.00,WeatherDisplay:10.37,2013-02-14 07:42:00,
2013-02-14 02:47:00,32.7,28.1,29.92,North,0,0.0,0.0,83,0.00,CLR,,0.00,WeatherDisplay:10.37,2013-02-14 07:47:00,
2013-02-14 02:52:00,32.7,28.1,29.92,North,0,0.0,0.0,83,0.00,CLR,,0.00,WeatherDisplay:10.37,2013-02-14 07:52:00,
2013-02-14 02:57:00,32.5,28.0,29.92,North,0,0.0,0.0,83,0.00,CLR,,0.00,WeatherDisplay:10.37,2013-02-14 07:57:00,
2013-02-14 03:02:00,32.5,28.0,29.92,North,0,0.0,0.0,83,0.00,CLR,,0.00,WeatherDisplay:10.37,2013-02-14 08:02:00,
2013-02-14 03:07:00,32.5,28.0,29.92,North,0,0.0,0.0,83,0.00,CLR,,0.00,WeatherDisplay:10.37,2013-02-14 08:07:00,
2013-02-14 03:12:00,32.5,28.0,29.92,North,0,0.0,0.0,83,0.00,CLR,,0.00,WeatherDisplay:10.37,2013-02-14 08:12:00,
2013-02-14 03:17:00,32.5,28.0,29.92,North,0,0.0,0.0,83,0.00,CLR,,0.00,WeatherDisplay:10.37,2013-02-14 08:17:00,
2013-02-14 03:23:00,32.5,28.0,29.92,North,0,0.0,0.0,83,0.00,CLR,,0.00,WeatherDisplay:10.37,2013-02-14 08:23:00,
2013-02-14 03:28:00,32.4,27.8,29.92,North,0,0.0,0.0,83,0.00,CLR,,0.00,WeatherDisplay:10.37,2013-02-14 08:28:00,
2013-02-14 03:33:00,32.2,27.6,29.92,North,0,0.0,0.0,83,0.00,CLR,,0.00,WeatherDisplay:10.37,2013-02-14 08:33:00,
2013-02-14 03:38:00,32.2,27.6,29.92,North,0,0.0,0.0,83,0.00,CLR,,0.00,WeatherDisplay:10.37,2013-02-14 08:38:00,
2013-02-14 03:43:00,31.8,27.2,29.92,North,0,0.0,0.0,83,0.00,CLR,,0.00,WeatherDisplay:10.37,2013-02-14 08:43:00,
2013-02-14 03:48:00,31.8,27.5,29.92,North,0,0.0,0.0,84,0.00,CLR,,0.00,WeatherDisplay:10.37,2013-02-14 08:48:00,
2013-02-14 03:53:00,31.6,27.4,29.93,North,0,0.0,0.0,84,0.00,CLR,,0.00,WeatherDisplay:10.37,2013-02-14 08:53:00,
2013-02-14 03:58:00,31.6,27.4,29.93,North,0,0.0,0.0,84,0.00,CLR,,0.00,WeatherDisplay:10.37,2013-02-14 08:58:00,
2013-02-14 04:03:00,31.6,27.4,29.93,North,0,0.0,0.0,84,0.00,FEW,,0.00,WeatherDisplay:10.37,2013-02-14 09:03:00,
2013-02-14 04:08:00,31.6,27.4,29.93,North,0,0.0,0.0,84,0.00,FEW,,0.00,WeatherDisplay:10.37,2013-02-14 09:08:00,
2013-02-14 04:13:00,31.6,27.4,29.93,North,0,0.0,0.0,84,0.00,FEW,,0.00,WeatherDisplay:10.37,2013-02-14 09:13:00,
2013-02-14 04:18:00,31.6,27.4,29.93,North,0,0.0,0.0,84,0.00,FEW,,0.00,WeatherDisplay:10.37,2013-02-14 09:18:00,
2013-02-14 04:23:00,31.8,27.5,29.94,North,0,0.0,0.0,84,0.00,FEW,,0.00,WeatherDisplay:10.37,2013-02-14 09:23:00,
2013-02-14 04:28:00,31.6,27.4,29.94,North,0,0.0,0.0,84,0.00,FEW,,0.00,WeatherDisplay:10.37,2013-02-14 09:28:00,
2013-02-14 04:33:00,31.3,27.0,29.94,North,0,0.0,0.0,84,0.00,FEW,,0.00,WeatherDisplay:10.37,2013-02-14 09:33:00,
2013-02-14 04:39:00,31.3,27.0,29.93,North,0,0.0,0.0,84,0.00,FEW,,0.00,WeatherDisplay:10.37,2013-02-14 09:39:00,
2013-02-14 04:44:00,31.1,26.8,29.94,North,0,0.0,0.0,84,0.00,FEW,,0.00,WeatherDisplay:10.37,2013-02-14 09:44:00,
2013-02-14 04:49:00,31.3,27.3,29.94,North,0,0.0,0.0,85,0.00,FEW,,0.00,WeatherDisplay:10.37,2013-02-14 09:49:00,
2013-02-14 04:54:00,31.3,27.3,29.94,North,0,0.0,0.0,85,0.00,FEW,,0.00,WeatherDisplay:10.37,2013-02-14 09:54:00,
2013-02-14 04:59:00,31.3,27.3,29.95,North,0,0.0,0.0,85,0.00,FEW,,0.00,WeatherDisplay:10.37,2013-02-14 09:59:00,
2013-02-14 05:04:00,31.1,27.1,29.95,North,0,0.0,0.0,85,0.00,CLR,,0.00,WeatherDisplay:10.37,2013-02-14 10:04:00,
2013-02-14 05:09:00,31.1,26.8,29.95,North,0,0.0,0.0,84,0.00,CLR,,0.00,WeatherDisplay:10.37,2013-02-14 10:09:00,
2013-02-14 05:14:00,30.9,26.7,29.95,North,0,0.0,0.0,84,0.00,CLR,,0.00,WeatherDisplay:10.37,2013-02-14 10:14:00,
2013-02-14 05:19:00,30.9,26.7,29.95,North,0,0.0,0.0,84,0.00,CLR,,0.00,WeatherDisplay:10.37,2013-02-14 10:19:00,
2013-02-14 05:24:00,30.7,26.8,29.95,North,0,0.0,0.0,85,0.00,CLR,,0.00,WeatherDisplay:10.37,2013-02-14 10:24:00,
2013-02-14 05:29:00,30.9,26.9,29.95,North,0,0.0,0.0,85,0.00,CLR,,0.00,WeatherDisplay:10.37,2013-02-14 10:29:00,
2013-02-14 05:34:00,30.9,26.9,29.95,North,0,0.0,0.0,85,0.00,CLR,,0.00,WeatherDisplay:10.37,2013-02-14 10:34:00,
2013-02-14 05:39:00,30.7,26.8,29.95,North,0,0.0,0.0,85,0.00,CLR,,0.00,WeatherDisplay:10.37,2013-02-14 10:39:00,
2013-02-14 05:44:00,30.7,26.8,29.95,North,0,0.0,0.0,85,0.00,CLR,,0.00,WeatherDisplay:10.37,2013-02-14 10:44:00,
2013-02-14 05:49:00,30.7,26.8,29.94,North,0,0.0,0.0,85,0.00,CLR,,0.00,WeatherDisplay:10.37,2013-02-14 10:49:00,
2013-02-14 05:55:00,30.6,26.6,29.95,North,0,0.0,0.0,85,0.00,CLR,,0.00,WeatherDisplay:10.37,2013-02-14 10:55:00,
2013-02-14 06:00:00,30.7,26.8,29.95,North,0,0.0,0.0,85,0.00,CLR,,0.00,WeatherDisplay:10.37,2013-02-14 11:00:00,
2013-02-14 06:05:00,30.7,27.0,29.95,North,0,0.0,0.0,86,0.00,CLR,,0.00,WeatherDisplay:10.37,2013-02-14 11:05:00,
2013-02-14 06:10:00,30.7,26.8,29.95,North,0,0.0,0.0,85,0.00,CLR,,0.00,WeatherDisplay:10.37,2013-02-14 11:10:00,
2013-02-14 06:15:00,30.7,27.0,29.95,North,0,0.0,0.0,86,0.00,CLR,,0.00,WeatherDisplay:10.37,2013-02-14 11:15:00,
2013-02-14 06:20:00,30.7,27.0,29.96,North,0,0.0,0.0,86,0.00,CLR,,0.00,WeatherDisplay:10.37,2013-02-14 11:20:00,
2013-02-14 06:25:00,30.6,26.9,29.96,North,0,0.0,0.0,86,0.00,CLR,,0.00,WeatherDisplay:10.37,2013-02-14 11:25:00,
2013-02-14 06:30:00,30.6,26.9,29.96,North,0,0.0,0.0,86,0.00,CLR,,0.00,WeatherDisplay:10.37,2013-02-14 11:30:00,
2013-02-14 06:35:00,30.4,26.4,29.96,North,0,0.0,0.0,85,0.00,CLR,,0.00,WeatherDisplay:10.37,2013-02-14 11:35:00,
2013-02-14 06:40:00,30.4,26.7,29.96,North,0,0.0,0.0,86,0.00,CLR,,0.00,WeatherDisplay:10.37,2013-02-14 11:40:00,
2013-02-14 06:45:00,30.0,26.3,29.96,North,0,0.0,0.0,86,0.00,CLR,,0.00,WeatherDisplay:10.37,2013-02-14 11:45:00,
2013-02-14 06:50:00,30.0,26.3,29.97,North,0,0.0,0.0,86,0.00,CLR,,0.00,WeatherDisplay:10.37,2013-02-14 11:50:00,
2013-02-14 06:55:00,30.0,26.1,29.97,North,0,0.0,0.0,85,0.00,CLR,,0.00,WeatherDisplay:10.37,2013-02-14 11:55:00,
2013-02-14 07:00:00,30.0,26.1,29.97,North,0,0.0,0.0,85,0.00,CLR,,0.00,WeatherDisplay:10.37,2013-02-14 12:00:00,
2013-02-14 07:05:00,29.8,25.9,29.98,North,0,0.0,0.0,85,0.00,OVC,,0.00,WeatherDisplay:10.37,2013-02-14 12:05:00,
2013-02-14 07:11:00,29.8,25.9,29.98,North,0,0.0,0.0,85,0.00,OVC,,0.00,WeatherDisplay:10.37,2013-02-14 12:11:00,
2013-02-14 07:16:00,29.8,25.9,29.98,North,0,0.0,0.0,85,0.00,OVC,,0.00,WeatherDisplay:10.37,2013-02-14 12:16:00,
2013-02-14 07:21:00,29.7,25.7,29.98,North,0,0.0,0.0,85,0.00,OVC,,0.00,WeatherDisplay:10.37,2013-02-14 12:21:00,
2013-02-14 07:26:00,29.5,25.5,29.98,North,0,0.0,0.0,85,0.00,OVC,,0.00,WeatherDisplay:10.37,2013-02-14 12:26:00,
2013-02-14 07:31:00,29.3,25.4,29.99,North,0,0.0,0.0,85,0.00,OVC,,0.00,WeatherDisplay:10.37,2013-02-14 12:31:00,
2013-02-14 07:36:00,29.1,25.2,29.99,North,0,0.0,0.0,85,0.00,OVC,,0.00,WeatherDisplay:10.37,2013-02-14 12:36:00,
2013-02-14 07:41:00,29.1,25.2,29.99,North,0,0.0,0.0,85,0.00,OVC,,0.00,WeatherDisplay:10.37,2013-02-14 12:41:00,
2013-02-14 07:46:00,29.3,25.4,30.00,North,0,0.0,0.0,85,0.00,OVC,,0.00,WeatherDisplay:10.37,2013-02-14 12:46:00,
2013-02-14 07:51:00,29.5,25.5,30.00,North,0,0.0,0.0,85,0.00,OVC,,0.00,WeatherDisplay:10.37,2013-02-14 12:51:00,
2013-02-14 07:56:00,29.5,25.5,30.00,North,0,0.0,0.0,85,0.00,OVC,,0.00,WeatherDisplay:10.37,2013-02-14 12:56:00,
2013-02-14 08:01:00,29.7,26.0,30.01,North,0,0.0,0.0,86,0.00,SCT,,0.00,WeatherDisplay:10.37,2013-02-14 13:01:00,
2013-02-14 08:06:00,29.8,26.2,30.01,North,0,0.0,0.0,86,0.00,SCT,,0.00,WeatherDisplay:10.37,2013-02-14 13:06:00,
2013-02-14 08:11:00,29.8,26.2,30.01,North,0,0.0,0.0,86,0.00,SCT,,0.00,WeatherDisplay:10.37,2013-02-14 13:11:00,
2013-02-14 08:16:00,30.0,26.3,30.01,North,0,0.0,0.0,86,0.00,SCT,,0.00,WeatherDisplay:10.37,2013-02-14 13:16:00,
2013-02-14 08:21:00,30.0,26.3,30.02,North,0,0.0,0.0,86,0.00,SCT,,0.00,WeatherDisplay:10.37,2013-02-14 13:21:00,
2013-02-14 08:27:00,30.4,26.7,30.02,North,0,0.0,0.0,86,0.00,SCT,,0.00,WeatherDisplay:10.37,2013-02-14 13:27:00,
2013-02-14 08:32:00,30.6,26.9,30.02,North,0,0.0,0.0,86,0.00,SCT,,0.00,WeatherDisplay:10.37,2013-02-14 13:32:00,
2013-02-14 08:37:00,30.7,27.3,30.02,North,0,0.0,0.0,87,0.00,SCT,,0.00,WeatherDisplay:10.37,2013-02-14 13:37:00,
2013-02-14 08:42:00,30.9,27.5,30.02,North,0,0.0,0.0,87,0.00,SCT,,0.00,WeatherDisplay:10.37,2013-02-14 13:42:00,
2013-02-14 08:47:00,31.1,27.7,30.02,North,0,0.0,0.0,87,0.00,SCT,,0.00,WeatherDisplay:10.37,2013-02-14 13:47:00,
2013-02-14 08:52:00,31.3,27.9,30.03,North,0,0.0,0.0,87,0.00,SCT,,0.00,WeatherDisplay:10.37,2013-02-14 13:52:00,
2013-02-14 08:57:00,31.6,28.2,30.03,North,0,0.0,0.0,87,0.00,SCT,,0.00,WeatherDisplay:10.37,2013-02-14 13:57:00,
2013-02-14 09:02:00,31.8,28.4,30.03,North,0,0.0,0.0,87,0.00,CLR,,0.00,WeatherDisplay:10.37,2013-02-14 14:02:00,
2013-02-14 09:07:00,32.0,28.6,30.03,North,0,0.0,0.0,87,0.00,CLR,,0.00,WeatherDisplay:10.37,2013-02-14 14:07:00,
2013-02-14 09:12:00,32.4,28.9,30.03,North,0,0.0,0.0,87,0.00,CLR,,0.00,WeatherDisplay:10.37,2013-02-14 14:12:00,
2013-02-14 09:17:00,32.5,29.1,30.03,North,0,0.0,0.0,87,0.00,CLR,,0.00,WeatherDisplay:10.37,2013-02-14 14:17:00,
2013-02-14 09:22:00,33.1,29.6,30.03,North,0,0.0,0.0,87,0.00,CLR,,0.00,WeatherDisplay:10.37,2013-02-14 14:22:00,
2013-02-14 09:27:00,33.6,30.4,30.03,NE,45,0.0,0.0,88,0.00,CLR,,0.00,WeatherDisplay:10.37,2013-02-14 14:27:00,
2013-02-14 09:32:00,34.3,31.2,30.03,ENE,68,3.4,3.4,88,0.00,CLR,,0.00,WeatherDisplay:10.37,2013-02-14 14:32:00,
2013-02-14 09:37:00,34.7,31.5,30.03,East,90,3.5,3.5,88,0.00,CLR,,0.00,WeatherDisplay:10.37,2013-02-14 14:37:00,
2013-02-14 09:43:00,35.2,31.8,30.03,ENE,68,4.5,4.5,87,0.00,CLR,,0.00,WeatherDisplay:10.37,2013-02-14 14:43:00,
2013-02-14 09:48:00,35.4,31.9,30.03,ENE,68,3.5,3.5,87,0.00,CLR,,0.00,WeatherDisplay:10.37,2013-02-14 14:48:00,
2013-02-14 09:53:00,36.1,32.4,30.02,ENE,68,3.5,3.5,86,0.00,CLR,,0.00,WeatherDisplay:10.37,2013-02-14 14:53:00,
2013-02-14 09:58:00,37.0,33.2,30.02,ENE,68,2.3,0.0,86,0.00,CLR,,0.00,WeatherDisplay:10.37,2013-02-14 14:58:00,
2013-02-14 10:03:00,37.8,33.9,30.03,ENE,68,3.5,3.5,86,0.00,CLR,,0.00,WeatherDisplay:10.37,2013-02-14 15:03:00,
2013-02-14 10:08:00,38.5,34.4,30.02,NE,45,3.5,3.5,85,0.00,CLR,,0.00,WeatherDisplay:10.37,2013-02-14 15:08:00,
2013-02-14 10:13:00,39.4,34.9,30.02,ENE,68,3.5,3.5,84,0.00,CLR,,0.00,WeatherDisplay:10.37,2013-02-14 15:13:00,
2013-02-14 10:18:00,39.7,35.0,30.02,NE,45,4.6,4.6,83,0.00,CLR,,0.00,WeatherDisplay:10.37,2013-02-14 15:18:00,
2013-02-14 10:23:00,40.3,35.2,30.01,NE,45,1.8,1.8,82,0.00,CLR,,0.00,WeatherDisplay:10.37,2013-02-14 15:23:00,
2013-02-14 10:28:00,40.6,35.0,30.01,ENE,68,5.8,5.8,80,0.00,CLR,,0.00,WeatherDisplay:10.37,2013-02-14 15:28:00,
2013-02-14 10:33:00,40.8,34.8,30.01,NNE,22,3.5,3.5,79,0.00,CLR,,0.00,WeatherDisplay:10.37,2013-02-14 15:33:00,
2013-02-14 10:38:00,41.2,35.5,30.01,ENE,68,4.6,4.6,80,0.00,CLR,,0.00,WeatherDisplay:10.37,2013-02-14 15:38:00,
2013-02-14 10:43:00,41.5,35.5,30.01,NE,45,5.8,5.8,79,0.00,CLR,,0.00,WeatherDisplay:10.37,2013-02-14 15:43:00,
2013-02-14 10:48:00,41.9,35.5,30.01,East,90,1.1,1.5,78,0.00,CLR,,0.00,WeatherDisplay:10.37,2013-02-14 15:48:00,
2013-02-14 10:53:00,42.4,36.1,30.01,South,180,0.0,0.0,78,0.00,CLR,,0.00,WeatherDisplay:10.37,2013-02-14 15:53:00,
2013-02-14 10:58:00,42.6,36.2,30.02,East,90,3.4,3.4,78,0.00,CLR,,0.00,WeatherDisplay:10.37,2013-02-14 15:58:00,
2013-02-14 11:03:00,43.3,36.6,30.02,SSW,202,3.5,0.0,77,0.00,CLR,,0.00,WeatherDisplay:10.37,2013-02-14 16:03:00,
2013-02-14 11:09:00,43.5,36.5,30.02,NE,45,0.0,1.1,76,0.00,CLR,,0.00,WeatherDisplay:10.37,2013-02-14 16:09:00,
2013-02-14 11:14:00,44.1,37.0,30.02,ENE,68,5.8,5.8,76,0.00,CLR,,0.00,WeatherDisplay:10.37,2013-02-14 16:14:00,
2013-02-14 11:19:00,44.4,37.0,30.02,NNW,338,3.5,0.0,75,0.00,CLR,,0.00,WeatherDisplay:10.37,2013-02-14 16:19:00,
2013-02-14 11:24:00,44.6,37.2,30.02,ENE,68,3.5,3.5,75,0.00,CLR,,0.00,WeatherDisplay:10.37,2013-02-14 16:24:00,
2013-02-14 11:29:00,45.1,37.7,30.01,North,0,5.8,5.8,75,0.00,CLR,,0.00,WeatherDisplay:10.37,2013-02-14 16:29:00,
2013-02-14 11:34:00,45.5,37.7,30.01,ENE,68,2.3,2.3,74,0.00,CLR,,0.00,WeatherDisplay:10.37,2013-02-14 16:34:00,
2013-02-14 11:39:00,46.0,38.2,30.01,NE,45,2.3,2.3,74,0.00,CLR,,0.00,WeatherDisplay:10.37,2013-02-14 16:39:00,
2013-02-14 11:44:00,46.2,37.7,30.01,ENE,68,6.9,6.9,72,0.00,CLR,,0.00,WeatherDisplay:10.37,2013-02-14 16:44:00,
2013-02-14 11:49:00,46.2,37.3,30.00,NE,45,4.6,4.6,71,0.00,CLR,,0.00,WeatherDisplay:10.37,2013-02-14 16:49:00,
2013-02-14 11:54:00,46.6,38.0,30.00,NNE,22,5.8,5.8,72,0.00,CLR,,0.00,WeatherDisplay:10.37,2013-02-14 16:54:00,
2013-02-14 11:59:00,46.8,37.9,30.01,ENE,68,3.5,3.5,71,0.00,CLR,,0.00,WeatherDisplay:10.37,2013-02-14 16:59:00,
2013-02-14 12:04:00,47.1,38.2,30.01,ENE,68,4.6,4.6,71,0.00,CLR,,0.00,WeatherDisplay:10.37,2013-02-14 17:04:00,
2013-02-14 12:09:00,47.5,38.5,30.01,ENE,68,3.5,3.5,71,0.00,CLR,,0.00,WeatherDisplay:10.37,2013-02-14 17:09:00,
2013-02-14 12:14:00,48.0,38.7,30.01,NE,45,8.1,8.1,70,0.00,CLR,,0.00,WeatherDisplay:10.37,2013-02-14 17:14:00,
2013-02-14 12:19:00,48.4,39.0,30.01,NE,45,4.6,4.6,70,0.00,CLR,,0.00,WeatherDisplay:10.37,2013-02-14 17:19:00,
2013-02-14 12:25:00,48.7,39.0,30.00,NE,45,6.9,6.9,69,0.00,CLR,,0.00,WeatherDisplay:10.37,2013-02-14 17:25:00,
2013-02-14 12:30:00,48.9,38.8,30.00,ENE,68,6.9,6.9,68,0.00,CLR,,0.00,WeatherDisplay:10.37,2013-02-14 17:30:00,
2013-02-14 12:35:00,49.1,38.6,30.00,North,0,4.7,5.1,67,0.00,CLR,,0.00,WeatherDisplay:10.37,2013-02-14 17:35:00,
2013-02-14 12:40:00,49.3,38.4,29.99,ENE,68,5.8,5.8,66,0.00,CLR,,0.00,WeatherDisplay:10.37,2013-02-14 17:40:00,
2013-02-14 12:45:00,49.6,38.0,29.99,ENE,68,5.8,5.8,64,0.00,CLR,,0.00,WeatherDisplay:10.37,2013-02-14 17:45:00,
2013-02-14 12:50:00,49.6,38.3,29.98,ENE,68,6.9,6.9,65,0.00,CLR,,0.00,WeatherDisplay:10.37,2013-02-14 17:50:00,
2013-02-14 12:55:00,49.8,38.1,29.98,NNW,338,8.1,8.1,64,0.00,CLR,,0.00,WeatherDisplay:10.37,2013-02-14 17:55:00,
2013-02-14 13:00:00,50.2,38.5,29.98,ENE,68,8.1,8.1,64,0.00,CLR,,0.00,WeatherDisplay:10.37,2013-02-14 18:00:00,
2013-02-14 13:05:00,50.5,38.4,29.97,NE,45,5.8,5.8,63,0.00,CLR,,0.00,WeatherDisplay:10.37,2013-02-14 18:05:00,
2013-02-14 13:10:00,50.7,37.8,29.97,NE,45,5.8,5.8,61,0.00,CLR,,0.00,WeatherDisplay:10.37,2013-02-14 18:10:00,
2013-02-14 13:15:00,51.1,38.1,29.96,ENE,68,8.1,8.1,61,0.00,CLR,,0.00,WeatherDisplay:10.37,2013-02-14 18:15:00,
2013-02-14 13:20:00,51.1,36.8,29.96,East,90,4.6,4.6,58,0.00,CLR,,0.00,WeatherDisplay:10.37,2013-02-14 18:20:00,
2013-02-14 13:26:00,51.4,37.1,29.96,NNE,22,1.1,1.1,58,0.00,CLR,,0.00,WeatherDisplay:10.37,2013-02-14 18:26:00,
2013-02-14 13:31:00,51.6,37.3,29.96,WNW,292,6.9,6.9,58,0.00,CLR,,0.00,WeatherDisplay:10.37,2013-02-14 18:31:00,
2013-02-14 13:36:00,52.0,37.2,29.95,WSW,248,3.5,3.5,57,0.00,CLR,,0.00,WeatherDisplay:10.37,2013-02-14 18:36:00,
2013-02-14 13:41:00,52.2,37.4,29.95,ENE,68,3.5,3.5,57,0.00,CLR,,0.00,WeatherDisplay:10.37,2013-02-14 18:41:00,
2013-02-14 13:46:00,52.3,37.1,29.95,SE,135,0.0,0.0,56,0.00,CLR,,0.00,WeatherDisplay:10.37,2013-02-14 18:46:00,
2013-02-14 13:51:00,52.7,37.9,29.94,WSW,248,3.5,3.5,57,0.00,CLR,,0.00,WeatherDisplay:10.37,2013-02-14 18:51:00,
2013-02-14 13:56:00,53.1,37.8,29.95,SE,135,2.3,2.3,56,0.00,CLR,,0.00,WeatherDisplay:10.37,2013-02-14 18:56:00,
2013-02-14 14:01:00,53.4,39.0,29.95,SSW,202,3.5,3.5,58,0.00,CLR,,0.00,WeatherDisplay:10.37,2013-02-14 19:01:00,
2013-02-14 14:06:00,53.8,39.8,29.95,SW,225,6.9,6.9,59,0.00,CLR,,0.00,WeatherDisplay:10.37,2013-02-14 19:06:00,
2013-02-14 14:11:00,54.0,40.4,29.96,SW,225,7.6,7.6,60,0.00,CLR,,0.00,WeatherDisplay:10.37,2013-02-14 19:11:00,
2013-02-14 14:16:00,54.1,40.6,29.95,SSW,202,5.8,5.8,60,0.00,CLR,,0.00,WeatherDisplay:10.37,2013-02-14 19:16:00,
2013-02-14 14:21:00,54.0,40.4,29.96,SE,135,4.6,4.6,60,0.00,CLR,,0.00,WeatherDisplay:10.37,2013-02-14 19:21:00,
2013-02-14 14:27:00,53.4,39.9,29.96,South,180,4.6,4.6,60,0.00,CLR,,0.00,WeatherDisplay:10.37,2013-02-14 19:27:00,
2013-02-14 14:32:00,53.4,40.3,29.96,WSW,248,5.8,5.8,61,0.00,CLR,,0.00,WeatherDisplay:10.37,2013-02-14 19:32:00,
2013-02-14 14:37:00,53.4,40.3,29.96,South,180,4.6,4.6,61,0.00,CLR,,0.00,WeatherDisplay:10.37,2013-02-14 19:37:00,
2013-02-14 14:42:00,53.4,40.3,29.96,SSW,202,5.8,5.8,61,0.00,CLR,,0.00,WeatherDisplay:10.37,2013-02-14 19:42:00,
2013-02-14 14:47:00,53.4,40.3,29.96,SSW,202,5.8,5.8,61,0.00,CLR,,0.00,WeatherDisplay:10.37,2013-02-14 19:47:00,
2013-02-14 14:52:00,53.2,40.1,29.96,SSE,158,4.6,4.6,61,0.00,CLR,,0.00,WeatherDisplay:10.37,2013-02-14 19:52:00,
2013-02-14 14:57:00,53.2,40.1,29.96,SE,135,4.6,4.6,61,0.00,CLR,,0.00,WeatherDisplay:10.37,2013-02-14 19:57:00,
2013-02-14 15:02:00,53.2,40.5,29.96,SSW,202,2.3,2.3,62,0.00,CLR,,0.00,WeatherDisplay:10.37,2013-02-14 20:02:00,
2013-02-14 15:07:00,53.2,40.5,29.96,SSW,202,6.9,6.9,62,0.00,CLR,,0.00,WeatherDisplay:10.37,2013-02-14 20:07:00,
2013-02-14 15:12:00,53.4,40.3,29.96,SE,135,3.5,3.5,61,0.00,CLR,,0.00,WeatherDisplay:10.37,2013-02-14 20:12:00,
2013-02-14 15:17:00,53.4,40.3,29.96,South,180,4.6,4.6,61,0.00,CLR,,0.00,WeatherDisplay:10.37,2013-02-14 20:17:00,
2013-02-14 15:22:00,53.4,40.7,29.96,SE,135,3.5,3.5,62,0.00,CLR,,0.00,WeatherDisplay:10.37,2013-02-14 20:22:00,
2013-02-14 15:27:00,53.6,40.0,29.97,ESE,112,0.0,0.0,60,0.00,CLR,,0.00,WeatherDisplay:10.37,2013-02-14 20:27:00,
2013-02-14 15:32:00,53.6,40.0,29.96,South,180,6.9,6.9,60,0.00,CLR,,0.00,WeatherDisplay:10.37,2013-02-14 20:32:00,
2013-02-14 15:37:00,53.4,39.4,29.96,South,180,0.0,0.0,59,0.00,CLR,,0.00,WeatherDisplay:10.37,2013-02-14 20:37:00,
2013-02-14 15:43:00,53.4,39.9,29.96,SE,135,2.7,2.7,60,0.00,CLR,,0.00,WeatherDisplay:10.37,2013-02-14 20:43:00,
2013-02-14 15:48:00,53.2,39.3,29.96,WSW,248,3.5,3.5,59,0.00,CLR,,0.00,WeatherDisplay:10.37,2013-02-14 20:48:00,
2013-02-14 15:53:00,53.2,39.7,29.96,SSE,158,4.6,4.6,60,0.00,CLR,,0.00,WeatherDisplay:10.37,2013-02-14 20:53:00,
2013-02-14 15:58:00,53.2,39.7,29.96,South,180,1.1,1.1,60,0.00,CLR,,0.00,WeatherDisplay:10.37,2013-02-14 20:58:00,
2013-02-14 16:03:00,53.2,39.7,29.96,SSW,202,3.5,3.5,60,0.00,CLR,,0.00,WeatherDisplay:10.37,2013-02-14 21:03:00,
2013-02-14 16:08:00,53.1,39.5,29.96,SSE,158,3.5,3.5,60,0.00,CLR,,0.00,WeatherDisplay:10.37,2013-02-14 21:08:00,
2013-02-14 16:13:00,52.9,39.4,29.96,WSW,248,3.5,3.5,60,0.00,CLR,,0.00,WeatherDisplay:10.37,2013-02-14 21:13:00,
2013-02-14 16:18:00,52.5,39.0,29.96,South,180,2.3,2.3,60,0.00,CLR,,0.00,WeatherDisplay:10.37,2013-02-14 21:18:00,
2013-02-14 16:23:00,52.5,39.0,29.96,WSW,248,2.3,2.3,60,0.00,CLR,,0.00,WeatherDisplay:10.37,2013-02-14 21:23:00,
2013-02-14 16:28:00,52.3,38.9,29.96,SSW,202,1.1,1.1,60,0.00,CLR,,0.00,WeatherDisplay:10.37,2013-02-14 21:28:00,
2013-02-14 16:33:00,52.2,38.7,29.96,SE,135,3.5,3.5,60,0.00,CLR,,0.00,WeatherDisplay:10.37,2013-02-14 21:33:00,
2013-02-14 16:38:00,52.0,38.5,29.96,South,180,0.0,0.0,60,0.00,CLR,,0.00,WeatherDisplay:10.37,2013-02-14 21:38:00,
2013-02-14 16:43:00,52.0,38.5,29.96,WSW,248,3.5,3.5,60,0.00,CLR,,0.00,WeatherDisplay:10.37,2013-02-14 21:43:00,
2013-02-14 16:48:00,51.8,38.3,29.96,WSW,248,0.4,1.1,60,0.00,CLR,,0.00,WeatherDisplay:10.37,2013-02-14 21:48:00,
2013-02-14 16:53:00,51.6,37.7,29.96,WSW,248,7.6,7.6,59,0.00,CLR,,0.00,WeatherDisplay:10.37,2013-02-14 21:53:00,
2013-02-14 16:59:00,51.6,37.7,29.96,WSW,248,2.3,2.3,59,0.00,CLR,,0.00,WeatherDisplay:10.37,2013-02-14 21:59:00,
2013-02-14 17:04:00,51.6,37.7,29.96,WSW,248,0.0,0.0,59,0.00,CLR,,0.00,WeatherDisplay:10.37,2013-02-14 22:04:00,
2013-02-14 17:09:00,51.6,37.7,29.96,WSW,248,0.7,1.1,59,0.00,CLR,,0.00,WeatherDisplay:10.37,2013-02-14 22:09:00,
2013-02-14 17:14:00,51.4,37.6,29.96,WSW,248,4.6,4.6,59,0.00,CLR,,0.00,WeatherDisplay:10.37,2013-02-14 22:14:00,
2013-02-14 17:19:00,51.1,37.2,29.96,WSW,248,2.3,2.3,59,0.00,CLR,,0.00,WeatherDisplay:10.37,2013-02-14 22:19:00,
2013-02-14 17:24:00,50.9,37.1,29.96,WSW,248,3.5,3.5,59,0.00,CLR,,0.00,WeatherDisplay:10.37,2013-02-14 22:24:00,
2013-02-14 17:29:00,50.5,37.2,29.96,West,270,1.1,1.1,60,0.00,CLR,,0.00,WeatherDisplay:10.37,2013-02-14 22:29:00,
2013-02-14 17:34:00,50.4,37.4,29.96,West,270,0.0,0.0,61,0.00,CLR,,0.00,WeatherDisplay:10.37,2013-02-14 22:34:00,
2013-02-14 17:39:00,49.8,36.9,29.96,West,270,0.0,0.0,61,0.00,CLR,,0.00,WeatherDisplay:10.37,2013-02-14 22:39:00,
2013-02-14 17:44:00,49.5,37.0,29.96,West,270,0.0,0.0,62,0.00,CLR,,0.00,WeatherDisplay:10.37,2013-02-14 22:44:00,
2013-02-14 17:49:00,49.1,36.6,29.96,WSW,248,3.5,3.5,62,0.00,CLR,,0.00,WeatherDisplay:10.37,2013-02-14 22:49:00,
2013-02-14 17:54:00,48.9,36.1,29.96,WSW,248,3.5,3.5,61,0.00,CLR,,0.00,WeatherDisplay:10.37,2013-02-14 22:54:00,
2013-02-14 17:59:00,48.7,35.9,29.96,NNW,338,3.5,3.5,61,0.00,CLR,,0.00,WeatherDisplay:10.37,2013-02-14 22:59:00,
2013-02-14 18:04:00,48.6,35.7,29.97,WNW,292,2.3,2.3,61,0.00,CLR,,0.00,WeatherDisplay:10.37,2013-02-14 23:04:00,
2013-02-14 18:09:00,48.2,35.8,29.97,NW,315,0.0,0.0,62,0.00,CLR,,0.00,WeatherDisplay:10.37,2013-02-14 23:09:00,
2013-02-14 18:15:00,47.8,35.8,29.97,NNW,338,4.6,4.6,63,0.00,CLR,,0.00,WeatherDisplay:10.37,2013-02-14 23:15:00,
2013-02-14 18:20:00,47.3,35.3,29.97,North,0,3.5,3.5,63,0.00,CLR,,0.00,WeatherDisplay:10.37,2013-02-14 23:20:00,
2013-02-14 18:25:00,46.9,35.4,29.98,North,0,0.0,0.0,64,0.00,CLR,,0.00,WeatherDisplay:10.37,2013-02-14 23:25:00,
2013-02-14 18:30:00,46.6,35.4,29.97,North,359,1.0,5.0,65,0.00,CLR,,0.00,WeatherDisplay:10.37,2013-02-14 23:30:00,
2013-02-14 18:35:00,46.0,34.9,29.98,North,0,0.0,0.0,65,0.00,CLR,,0.00,WeatherDisplay:10.37,2013-02-14 23:35:00,
2013-02-14 18:40:00,45.5,34.8,29.98,North,0,0.0,0.0,66,0.00,CLR,,0.00,WeatherDisplay:10.37,2013-02-14 23:40:00,
2013-02-14 18:45:00,45.1,34.8,29.98,North,0,0.0,0.0,67,0.00,CLR,,0.00,WeatherDisplay:10.37,2013-02-14 23:45:00,
2013-02-14 18:50:00,44.8,34.5,29.98,North,0,0.0,0.0,67,0.00,CLR,,0.00,WeatherDisplay:10.37,2013-02-14 23:50:00,
2013-02-14 18:55:00,44.2,34.0,29.98,North,0,0.0,0.0,67,0.00,CLR,,0.00,WeatherDisplay:10.37,2013-02-14 23:55:00,
2013-02-14 19:00:00,43.7,33.8,29.99,North,0,0.0,0.0,68,0.00,CLR,,0.00,WeatherDisplay:10.37,2013-02-15 00:00:00,
2013-02-14 19:05:00,43.3,33.8,29.99,NNW,338,0.0,0.0,69,0.00,CLR,,0.00,WeatherDisplay:10.37,2013-02-15 00:05:00,
2013-02-14 19:10:00,43.2,33.7,29.99,NNW,338,0.0,0.0,69,0.00,CLR,,0.00,WeatherDisplay:10.37,2013-02-15 00:10:00,
2013-02-14 19:15:00,43.0,33.5,29.98,NNW,338,0.0,0.0,69,0.00,CLR,,0.00,WeatherDisplay:10.37,2013-02-15 00:15:00,
2013-02-14 19:20:00,42.6,33.5,29.98,NNW,338,0.0,0.0,70,0.00,CLR,,0.00,WeatherDisplay:10.37,2013-02-15 00:20:00,
2013-02-14 19:25:00,42.3,33.2,29.98,NW,315,0.0,0.0,70,0.00,CLR,,0.00,WeatherDisplay:10.37,2013-02-15 00:25:00,
2013-02-14 19:30:00,42.1,33.4,29.98,NW,315,0.0,0.0,71,0.00,CLR,,0.00,WeatherDisplay:10.37,2013-02-15 00:30:00,
2013-02-14 19:35:00,41.9,33.2,29.99,NW,315,0.0,0.0,71,0.00,CLR,,0.00,WeatherDisplay:10.37,2013-02-15 00:35:00,
2013-02-14 19:40:00,41.7,33.0,29.99,NNW,338,0.0,0.0,71,0.00,CLR,,0.00,WeatherDisplay:10.37,2013-02-15 00:40:00,
2013-02-14 19:45:00,41.4,33.0,29.99,NNW,338,0.0,0.0,72,0.00,CLR,,0.00,WeatherDisplay:10.37,2013-02-15 00:45:00,
2013-02-14 19:51:00,41.0,32.7,29.99,NW,315,0.0,0.0,72,0.00,CLR,,0.00,WeatherDisplay:10.37,2013-02-15 00:51:00,
2013-02-14 19:56:00,40.8,32.8,29.99,NNW,338,2.3,0.0,73,0.00,CLR,,0.00,WeatherDisplay:10.37,2013-02-15 00:56:00,
2013-02-14 20:01:00,40.3,32.0,29.99,NW,315,0.0,0.0,72,0.00,CLR,,0.00,WeatherDisplay:10.37,2013-02-15 01:01:00,
2013-02-14 20:06:00,39.9,32.0,29.99,NNW,338,3.5,3.5,73,0.00,CLR,,0.00,WeatherDisplay:10.37,2013-02-15 01:06:00,
2013-02-14 20:11:00,39.7,31.8,30.00,NNW,338,0.0,0.0,73,0.00,CLR,,0.00,WeatherDisplay:10.37,2013-02-15 01:11:00,
2013-02-14 20:16:00,39.4,31.8,30.00,NNW,338,0.0,0.0,74,0.00,CLR,,0.00,WeatherDisplay:10.37,2013-02-15 01:16:00,
2013-02-14 20:21:00,39.0,31.4,30.00,NW,315,0.0,0.0,74,0.00,CLR,,0.00,WeatherDisplay:10.37,2013-02-15 01:21:00,
2013-02-14 20:26:00,39.0,31.8,30.00,NW,315,0.0,0.0,75,0.00,CLR,,0.00,WeatherDisplay:10.37,2013-02-15 01:26:00,
2013-02-14 20:31:00,38.8,31.6,30.00,NNW,338,0.0,0.0,75,0.00,CLR,,0.00,WeatherDisplay:10.37,2013-02-15 01:31:00,
2013-02-14 20:36:00,38.5,31.2,30.00,NNW,338,0.0,0.0,75,0.00,CLR,,0.00,WeatherDisplay:10.37,2013-02-15 01:36:00,
2013-02-14 20:41:00,38.3,31.1,30.00,NNW,338,0.0,0.0,75,0.00,CLR,,0.00,WeatherDisplay:10.37,2013-02-15 01:41:00,
2013-02-14 20:46:00,38.1,30.9,30.01,NNW,338,0.0,0.0,75,0.00,CLR,,0.00,WeatherDisplay:10.37,2013-02-15 01:46:00,
2013-02-14 20:51:00,37.9,31.0,30.01,NNW,338,0.0,0.0,76,0.00,CLR,,0.00,WeatherDisplay:10.37,2013-02-15 01:51:00,
2013-02-14 20:56:00,37.8,30.9,30.01,NNW,338,0.0,0.0,76,0.00,CLR,,0.00,WeatherDisplay:10.37,2013-02-15 01:56:00,
2013-02-14 21:01:00,37.6,30.7,30.01,NW,315,0.0,0.0,76,0.00,CLR,,0.00,WeatherDisplay:10.37,2013-02-15 02:01:00,
2013-02-14 21:07:00,37.6,31.0,30.01,NW,315,0.0,0.0,77,0.00,CLR,,0.00,WeatherDisplay:10.37,2013-02-15 02:07:00,
2013-02-14 21:12:00,37.6,31.0,30.02,NW,315,0.0,0.0,77,0.00,CLR,,0.00,WeatherDisplay:10.37,2013-02-15 02:12:00,
2013-02-14 21:17:00,37.6,31.0,30.02,NW,315,0.0,0.0,77,0.00,CLR,,0.00,WeatherDisplay:10.37,2013-02-15 02:17:00,
2013-02-14 21:22:00,37.4,31.2,30.02,NW,315,0.0,0.0,78,0.00,CLR,,0.00,WeatherDisplay:10.37,2013-02-15 02:22:00,
2013-02-14 21:27:00,37.4,31.2,30.03,NW,315,0.0,0.0,78,0.00,CLR,,0.00,WeatherDisplay:10.37,2013-02-15 02:27:00,
2013-02-14 21:32:00,37.2,31.0,30.03,NW,315,0.0,0.0,78,0.00,CLR,,0.00,WeatherDisplay:10.37,2013-02-15 02:32:00,
2013-02-14 21:37:00,37.2,31.0,30.03,NW,315,0.0,0.0,78,0.00,CLR,,0.00,WeatherDisplay:10.37,2013-02-15 02:37:00,
2013-02-14 21:42:00,37.0,30.8,30.03,NW,315,0.0,0.0,78,0.00,CLR,,0.00,WeatherDisplay:10.37,2013-02-15 02:42:00,
2013-02-14 21:47:00,37.0,30.8,30.03,NW,315,0.0,0.0,78,0.00,CLR,,0.00,WeatherDisplay:10.37,2013-02-15 02:47:00,
2013-02-14 21:52:00,37.0,30.8,30.03,NNW,338,0.0,0.0,78,0.00,CLR,,0.00,WeatherDisplay:10.37,2013-02-15 02:52:00,
2013-02-14 21:57:00,36.7,30.5,30.03,NNW,338,0.0,0.0,78,0.00,CLR,,0.00,WeatherDisplay:10.37,2013-02-15 02:57:00,
2013-02-14 22:02:00,36.3,30.1,30.03,NNW,338,0.0,0.0,78,0.00,CLR,,0.00,WeatherDisplay:10.37,2013-02-15 03:02:00,
2013-02-14 22:07:00,36.3,30.4,30.03,NNW,338,0.0,0.0,79,0.00,CLR,,0.00,WeatherDisplay:10.37,2013-02-15 03:07:00,
2013-02-14 22:13:00,36.3,30.4,30.03,NNW,338,0.0,0.0,79,0.00,CLR,,0.00,WeatherDisplay:10.37,2013-02-15 03:13:00,
2013-02-14 22:18:00,36.0,30.1,30.04,NW,315,0.0,0.0,79,0.00,CLR,,0.00,WeatherDisplay:10.37,2013-02-15 03:18:00,
2013-02-14 22:23:00,35.8,29.9,30.04,NNW,338,0.0,0.0,79,0.00,CLR,,0.00,WeatherDisplay:10.37,2013-02-15 03:23:00,
2013-02-14 22:28:00,35.4,29.2,30.04,NNW,338,0.0,0.0,78,0.00,CLR,,0.00,WeatherDisplay:10.37,2013-02-15 03:28:00,
2013-02-14 22:33:00,35.2,29.1,30.03,NNW,338,0.0,0.0,78,0.00,CLR,,0.00,WeatherDisplay:10.37,2013-02-15 03:33:00,
2013-02-14 22:38:00,34.9,29.0,30.03,NNW,338,0.0,0.0,79,0.00,CLR,,0.00,WeatherDisplay:10.37,2013-02-15 03:38:00,
2013-02-14 22:43:00,34.9,29.3,30.04,NNW,338,0.0,0.0,80,0.00,CLR,,0.00,WeatherDisplay:10.37,2013-02-15 03:43:00,
2013-02-14 22:48:00,34.9,29.3,30.03,NNW,338,0.0,0.0,80,0.00,CLR,,0.00,WeatherDisplay:10.37,2013-02-15 03:48:00,
2013-02-14 22:53:00,34.7,29.2,30.04,NNW,338,0.0,0.0,80,0.00,CLR,,0.00,WeatherDisplay:10.37,2013-02-15 03:53:00,
2013-02-14 22:58:00,34.7,29.2,30.04,NNW,338,0.0,0.0,80,0.00,CLR,,0.00,WeatherDisplay:10.37,2013-02-15 03:58:00,
2013-02-14 23:03:00,34.5,29.0,30.05,NNW,338,0.0,0.0,80,0.00,CLR,,0.00,WeatherDisplay:10.37,2013-02-15 04:03:00,
2013-02-14 23:08:00,34.5,29.0,30.04,NNW,338,0.0,0.0,80,0.00,CLR,,0.00,WeatherDisplay:10.37,2013-02-15 04:08:00,
2013-02-14 23:13:00,34.5,29.0,30.04,NNW,338,0.0,0.0,80,0.00,CLR,,0.00,WeatherDisplay:10.37,2013-02-15 04:13:00,
2013-02-14 23:18:00,34.3,28.8,30.04,NNW,338,0.0,0.0,80,0.00,CLR,,0.00,WeatherDisplay:10.37,2013-02-15 04:18:00,
2013-02-14 23:23:00,34.3,29.1,30.05,NNW,338,0.0,0.0,81,0.00,CLR,,0.00,WeatherDisplay:10.37,2013-02-15 04:23:00,
2013-02-14 23:28:00,34.3,29.1,30.05,NNW,338,0.0,0.0,81,0.00,CLR,,0.00,WeatherDisplay:10.37,2013-02-15 04:28:00,
2013-02-14 23:33:00,34.2,28.9,30.05,NNW,338,0.0,0.0,81,0.00,CLR,,0.00,WeatherDisplay:10.37,2013-02-15 04:33:00,
2013-02-14 23:38:00,34.2,28.9,30.05,NNW,338,0.0,0.0,81,0.00,CLR,,0.00,WeatherDisplay:10.37,2013-02-15 04:38:00,
2013-02-14 23:43:00,34.0,28.8,30.04,NNW,338,0.0,0.0,81,0.00,CLR,,0.00,WeatherDisplay:10.37,2013-02-15 04:43:00,
2013-02-14 23:48:00,33.6,28.4,30.05,NNW,338,0.0,0.0,81,0.00,CLR,,0.00,WeatherDisplay:10.37,2013-02-15 04:48:00,
2013-02-14 23:54:00,33.6,28.4,30.05,NNW,338,0.0,0.0,81,0.00,CLR,,0.00,WeatherDisplay:10.37,2013-02-15 04:54:00,
2013-02-14 23:59:00,33.6,28.4,30.05,NNW,338,0.0,0.0,81,0.00,CLR,,0.00,WeatherDisplay:10.37,2013-02-15 04:59:00,